Time;durP1;ratioP1;P1;durP2;ratioP2;P2;SDS_P1;SDS_P2;PMS_P1;PMS_P2;Temp;Humidity;BMP_temperature;BMP_pressure;BME280_temperature;BME280_humidity;BME280_pressure;Samples;Min_cycle;Max_cycle;Signal;HPM_P1;HPM_P2
2023/05/07 00:00:37;;;;;;;41.50;7.60;;;;;;;;;;5015076;28;20045;-74
2023/05/07 00:03:05;;;;;;;31.98;5.32;;;;;;;;;;5032861;28;20061;-71
2023/05/07 00:05:32;;;;;;;74.40;8.32;;;;;;;;;;5016087;28;20415;-70
2023/05/07 00:07:59;;;;;;;32.00;5.60;;;;;;;;;;5017202;28;20042;-73
2023/05/07 00:10:26;;;;;;;45.33;6.07;;;;;;;;;;5030144;28;20050;-73
2023/05/07 00:12:55;;;;;;;60.22;7.57;;;;;;;;;;5010309;28;20476;-75
2023/05/07 00:15:22;;;;;;;46.30;6.20;;;;;;;;;;5029814;28;20037;-72
2023/05/07 00:17:49;;;;;;;51.33;6.95;;;;;;;;;;5026869;28;20044;-74
2023/05/07 00:20:17;;;;;;;57.03;7.10;;;;;;;;;;5024131;28;20045;-72
2023/05/07 00:22:44;;;;;;;31.85;5.60;;;;;;;;;;5032381;28;20054;-70
2023/05/07 00:25:12;;;;;;;28.77;5.22;;;;;;;;;;5029704;28;20054;-71
2023/05/07 00:27:39;;;;;;;50.40;7.20;;;;;;;;;;5009285;28;20120;-71
2023/05/07 00:30:06;;;;;;;15.60;4.28;;;;;;;;;;5008313;28;20753;-70
2023/05/07 00:32:34;;;;;;;37.10;5.55;;;;;;;;;;5026581;28;20088;-72
2023/05/07 00:35:01;;;;;;;80.00;8.50;;;;;;;;;;5029322;28;20057;-70
2023/05/07 00:37:28;;;;;;;33.50;5.95;;;;;;;;;;5004522;28;20507;-70
2023/05/07 00:39:55;;;;;;;44.28;7.30;;;;;;;;;;5030894;28;20128;-73
2023/05/07 00:42:22;;;;;;;55.55;6.97;;;;;;;;;;5007152;28;20052;-70
2023/05/07 00:44:50;;;;;;;43.33;5.70;;;;;;;;;;5015111;28;20041;-71
2023/05/07 00:47:17;;;;;;;76.38;8.77;;;;;;;;;;5029020;28;20056;-71
2023/05/07 00:49:44;;;;;;;33.95;5.22;;;;;;;;;;5029245;28;20066;-71
2023/05/07 00:52:13;;;;;;;29.25;5.95;;;;;;;;;;5008963;28;20041;-71
2023/05/07 00:54:40;;;;;;;38.42;6.05;;;;;;;;;;5029694;28;20052;-70
2023/05/07 00:57:08;;;;;;;48.03;6.75;;;;;;;;;;5026871;28;20050;-72
2023/05/07 00:59:35;;;;;;;35.55;6.28;;;;;;;;;;5007229;28;20475;-70
2023/05/07 01:02:03;;;;;;;36.67;6.28;;;;;;;;;;5026813;28;20057;-71
2023/05/07 01:04:30;;;;;;;50.13;6.47;;;;;;;;;;5031068;28;20409;-72
2023/05/07 01:06:58;;;;;;;41.60;5.68;;;;;;;;;;5028585;28;20457;-71
2023/05/07 01:09:26;;;;;;;42.42;6.03;;;;;;;;;;5028047;28;20091;-72
2023/05/07 01:11:55;;;;;;;48.47;5.90;;;;;;;;;;5029808;28;20042;-71
2023/05/07 01:14:22;;;;;;;63.80;7.68;;;;;;;;;;5007087;28;20471;-71
2023/05/07 01:16:50;;;;;;;45.95;5.95;;;;;;;;;;5015606;28;20096;-73
2023/05/07 01:19:20;;;;;;;31.80;4.88;;;;;;;;;;5026264;28;20038;-70
2023/05/07 01:21:48;;;;;;;22.88;4.28;;;;;;;;;;5010434;28;20046;-73
2023/05/07 01:24:17;;;;;;;39.33;5.03;;;;;;;;;;5015171;28;20129;-74
2023/05/07 01:26:45;;;;;;;21.08;3.97;;;;;;;;;;5026585;28;20042;-71
2023/05/07 01:29:14;;;;;;;40.40;5.35;;;;;;;;;;5028121;28;20060;-71
2023/05/07 01:31:42;;;;;;;34.75;5.28;;;;;;;;;;5028699;28;20526;-71
2023/05/07 01:34:09;;;;;;;29.15;5.32;;;;;;;;;;5029981;28;20044;-70
2023/05/07 01:36:38;;;;;;;33.63;4.93;;;;;;;;;;5007147;28;20107;-70
2023/05/07 01:39:06;;;;;;;38.60;5.72;;;;;;;;;;5003805;28;20042;-70
2023/05/07 01:41:33;;;;;;;37.92;5.43;;;;;;;;;;5027374;28;20499;-70
2023/05/07 01:44:01;;;;;;;37.00;5.30;;;;;;;;;;5023419;28;20100;-70
2023/05/07 01:46:28;;;;;;;45.45;6.15;;;;;;;;;;5027968;28;20053;-73
2023/05/07 01:48:55;;;;;;;36.03;5.03;;;;;;;;;;5030475;28;20042;-70
2023/05/07 01:51:22;;;;;;;20.98;4.03;;;;;;;;;;5025618;28;20042;-71
2023/05/07 01:53:50;;;;;;;47.28;5.22;;;;;;;;;;5024905;28;20096;-71
2023/05/07 01:56:19;;;;;;;62.80;6.55;;;;;;;;;;5015032;28;20103;-72
2023/05/07 01:58:47;;;;;;;39.78;4.88;;;;;;;;;;5035336;28;20045;-70
2023/05/07 02:01:14;;;;;;;349.95;27.95;;;;;;;;;;4658445;22;20029;-75
2023/05/07 02:03:42;;;;;;;37.40;5.30;;;;;;;;;;5030067;28;20453;-75
2023/05/07 02:06:19;;;;;;;53.22;7.10;;;;;;;;;;5031768;28;20052;-75
2023/05/07 02:08:46;;;;;;;43.45;6.30;;;;;;;;;;5030759;28;20051;-75
2023/05/07 02:11:14;;;;;;;46.92;5.93;;;;;;;;;;5017227;28;20143;-75
2023/05/07 02:13:41;;;;;;;24.67;4.57;;;;;;;;;;5041638;28;20384;-76
2023/05/07 02:16:08;;;;;;;50.95;6.43;;;;;;;;;;5042160;28;20466;-75
2023/05/07 02:18:35;;;;;;;30.10;4.50;;;;;;;;;;5040017;28;20048;-75
2023/05/07 02:21:02;;;;;;;37.65;5.28;;;;;;;;;;5042876;28;20544;-75
2023/05/07 02:23:29;;;;;;;69.88;7.55;;;;;;;;;;5025072;28;20051;-75
2023/05/07 02:25:57;;;;;;;24.45;4.03;;;;;;;;;;5041867;28;20716;-75
2023/05/07 02:28:24;;;;;;;27.15;5.15;;;;;;;;;;5040641;28;20049;-75
2023/05/07 02:31:00;;;;;;;38.25;5.32;;;;;;;;;;5012036;28;20441;-75
2023/05/07 02:33:29;;;;;;;48.90;6.45;;;;;;;;;;5042276;28;20052;-75
2023/05/07 02:35:56;;;;;;;59.55;7.30;;;;;;;;;;5031647;28;20087;-75
2023/05/07 02:38:23;;;;;;;74.97;8.23;;;;;;;;;;5033218;28;20494;-75
2023/05/07 02:40:50;;;;;;;31.00;4.80;;;;;;;;;;5012282;28;20091;-75
2023/05/07 02:43:17;;;;;;;49.20;6.13;;;;;;;;;;5043904;28;20061;-75
2023/05/07 02:45:47;;;;;;;30.65;4.82;;;;;;;;;;5030864;28;20468;-75
2023/05/07 02:48:14;;;;;;;25.70;4.72;;;;;;;;;;5030252;28;20072;-75
2023/05/07 02:50:42;;;;;;;38.33;5.40;;;;;;;;;;5042261;28;20474;-75
2023/05/07 02:53:11;;;;;;;21.35;3.90;;;;;;;;;;5038903;28;20476;-75
2023/05/07 02:55:38;;;;;;;45.65;6.53;;;;;;;;;;5038754;28;20047;-75
2023/05/07 02:58:05;;;;;;;22.33;4.15;;;;;;;;;;5044746;28;20376;-75
2023/05/07 03:00:34;;;;;;;33.33;5.13;;;;;;;;;;5027953;28;20107;-75
2023/05/07 03:03:22;;;;;;;44.70;5.95;;;;;;;;;;4950072;28;20141;-75
2023/05/07 03:05:49;;;;;;;39.60;5.50;;;;;;;;;;4950325;29;20157;-75
2023/05/07 03:08:16;;;;;;;36.75;4.90;;;;;;;;;;4934934;29;20117;-75
2023/05/07 03:10:43;;;;;;;50.78;5.90;;;;;;;;;;4934724;29;20493;-75
2023/05/07 03:13:10;;;;;;;20.65;4.22;;;;;;;;;;4950259;29;20040;-75
2023/05/07 03:15:37;;;;;;;26.95;4.50;;;;;;;;;;4950407;28;20509;-75
2023/05/07 03:18:05;;;;;;;30.35;4.55;;;;;;;;;;4934544;29;20075;-75
2023/05/07 03:20:32;;;;;;;47.03;6.00;;;;;;;;;;4934090;28;20480;-75
2023/05/07 03:22:59;;;;;;;34.13;5.15;;;;;;;;;;4934523;29;20047;-75
2023/05/07 03:25:27;;;;;;;41.08;5.88;;;;;;;;;;4949848;28;20055;-75
2023/05/07 03:27:54;;;;;;;41.22;5.65;;;;;;;;;;4950082;28;20504;-75
2023/05/07 03:30:25;;;;;;;28.48;4.13;;;;;;;;;;4933847;29;20063;-75
2023/05/07 03:32:52;;;;;;;65.13;6.80;;;;;;;;;;4949570;28;20549;-75
2023/05/07 03:35:20;;;;;;;73.65;7.55;;;;;;;;;;4932318;28;20442;-75
2023/05/07 03:37:47;;;;;;;23.55;3.60;;;;;;;;;;4950617;29;20528;-75
2023/05/07 03:40:14;;;;;;;40.80;5.68;;;;;;;;;;4970495;28;20140;-75
2023/05/07 03:42:46;;;;;;;38.50;5.18;;;;;;;;;;5010700;28;20125;-75
2023/05/07 03:45:15;;;;;;;35.58;5.20;;;;;;;;;;5020523;28;20076;-75
2023/05/07 03:47:46;;;;;;;41.05;6.13;;;;;;;;;;5011426;28;20104;-74
2023/05/07 03:50:17;;;;;;;48.45;6.13;;;;;;;;;;5018063;28;20054;-74
2023/05/07 03:52:45;;;;;;;58.45;6.40;;;;;;;;;;5016090;28;20471;-75
2023/05/07 03:55:15;;;;;;;30.33;4.35;;;;;;;;;;5010767;28;20487;-75
2023/05/07 03:57:48;;;;;;;35.27;4.67;;;;;;;;;;5023334;28;20491;-74
2023/05/07 04:00:15;;;;;;;60.13;6.68;;;;;;;;;;5021251;28;20513;-75
2023/05/07 04:02:47;;;;;;;35.15;5.05;;;;;;;;;;5035492;28;20055;-74
2023/05/07 04:05:21;;;;;;;91.40;9.45;;;;;;;;;;5029595;28;20050;-74
2023/05/07 04:07:52;;;;;;;22.85;4.40;;;;;;;;;;5020263;28;20049;-76
2023/05/07 04:10:25;;;;;;;59.83;7.28;;;;;;;;;;5023452;28;20041;-75
2023/05/07 04:12:55;;;;;;;47.28;7.28;;;;;;;;;;5041441;28;20037;-75
2023/05/07 04:15:23;;;;;;;36.67;5.43;;;;;;;;;;5041924;28;20120;-75
2023/05/07 04:17:50;;;;;;;39.20;6.15;;;;;;;;;;5033481;28;20130;-75
2023/05/07 04:20:20;;;;;;;55.67;7.85;;;;;;;;;;5028697;28;20058;-75
2023/05/07 04:22:55;;;;;;;39.20;5.97;;;;;;;;;;5032854;28;20059;-75
2023/05/07 04:25:26;;;;;;;58.20;7.68;;;;;;;;;;5042124;28;20041;-75
2023/05/07 04:27:58;;;;;;;46.95;6.47;;;;;;;;;;5042055;28;20494;-75
2023/05/07 04:30:27;;;;;;;38.55;5.75;;;;;;;;;;5035095;28;20053;-74
2023/05/07 04:32:54;;;;;;;44.35;5.85;;;;;;;;;;5030629;28;20037;-75
2023/05/07 04:35:23;;;;;;;64.22;7.60;;;;;;;;;;5029315;28;20095;-75
2023/05/07 04:37:50;;;;;;;42.40;6.10;;;;;;;;;;5033721;28;20073;-75
2023/05/07 04:40:18;;;;;;;34.20;5.75;;;;;;;;;;5009570;28;20047;-75
2023/05/07 04:42:45;;;;;;;28.75;5.55;;;;;;;;;;5046291;28;20052;-75
2023/05/07 04:45:12;;;;;;;34.08;6.32;;;;;;;;;;5032038;28;20052;-75
2023/05/07 04:47:42;;;;;;;37.17;5.40;;;;;;;;;;5044171;28;20049;-74
2023/05/07 04:50:10;;;;;;;31.80;4.72;;;;;;;;;;5024316;28;20048;-75
2023/05/07 04:52:40;;;;;;;52.35;6.22;;;;;;;;;;5030110;28;20044;-74
2023/05/07 04:55:07;;;;;;;20.08;4.38;;;;;;;;;;5043217;28;20045;-74
2023/05/07 04:57:40;;;;;;;34.72;5.53;;;;;;;;;;5044028;28;20140;-74
2023/05/07 05:00:09;;;;;;;39.95;5.60;;;;;;;;;;5049589;28;20049;-74
2023/05/07 05:02:38;;;;;;;48.42;6.60;;;;;;;;;;5043186;28;20057;-74
2023/05/07 05:05:06;;;;;;;17.40;4.45;;;;;;;;;;5027542;28;20145;-74
2023/05/07 05:07:34;;;;;;;43.85;5.57;;;;;;;;;;5029962;28;20053;-75
2023/05/07 05:10:03;;;;;;;20.20;4.50;;;;;;;;;;5048571;28;20070;-74
2023/05/07 05:12:33;;;;;;;48.13;5.32;;;;;;;;;;5019943;28;20414;-74
2023/05/07 05:15:00;;;;;;;36.40;4.72;;;;;;;;;;5038425;28;20056;-74
2023/05/07 05:17:28;;;;;;;84.18;8.45;;;;;;;;;;5034233;28;20151;-74
2023/05/07 05:19:56;;;;;;;41.38;5.18;;;;;;;;;;5023381;28;20049;-74
2023/05/07 05:22:25;;;;;;;15.85;3.33;;;;;;;;;;5024445;28;20488;-74
2023/05/07 05:24:55;;;;;;;38.65;4.93;;;;;;;;;;5031363;28;20565;-74
2023/05/07 05:27:23;;;;;;;61.70;6.40;;;;;;;;;;5042015;28;20452;-74
2023/05/07 05:29:50;;;;;;;38.67;4.63;;;;;;;;;;5026466;28;20087;-74
2023/05/07 05:32:17;;;;;;;39.63;4.82;;;;;;;;;;5043527;28;20132;-74
2023/05/07 05:34:44;;;;;;;90.38;8.55;;;;;;;;;;5032903;28;20059;-74
2023/05/07 05:37:11;;;;;;;19.13;3.15;;;;;;;;;;5044215;28;20041;-74
2023/05/07 05:39:38;;;;;;;19.70;3.33;;;;;;;;;;5031837;28;20041;-74
2023/05/07 05:42:07;;;;;;;38.03;4.78;;;;;;;;;;5042821;28;20049;-74
2023/05/07 05:44:35;;;;;;;60.50;6.57;;;;;;;;;;5042335;28;20045;-74
2023/05/07 05:47:03;;;;;;;34.92;4.88;;;;;;;;;;5042137;28;20049;-74
2023/05/07 05:49:29;;;;;;;43.97;5.20;;;;;;;;;;5044339;28;20057;-74
2023/05/07 05:51:57;;;;;;;39.05;4.95;;;;;;;;;;5031203;28;20057;-74
2023/05/07 05:54:28;;;;;;;34.45;4.43;;;;;;;;;;5032286;28;20034;-74
2023/05/07 05:56:55;;;;;;;72.00;8.38;;;;;;;;;;5033250;28;20098;-75
2023/05/07 05:59:23;;;;;;;61.42;6.65;;;;;;;;;;5041129;28;20053;-75
2023/05/07 06:01:51;;;;;;;37.33;5.30;;;;;;;;;;5010078;28;20383;-74
2023/05/07 06:04:19;;;;;;;35.55;4.78;;;;;;;;;;5025372;28;20067;-75
2023/05/07 06:06:53;;;;;;;31.20;4.47;;;;;;;;;;5033073;28;20037;-74
2023/05/07 06:09:21;;;;;;;40.35;5.20;;;;;;;;;;5024912;28;20048;-75
2023/05/07 06:11:48;;;;;;;34.60;4.65;;;;;;;;;;5032661;28;20053;-75
2023/05/07 06:14:15;;;;;;;11.30;2.90;;;;;;;;;;5024802;28;20067;-75
2023/05/07 06:16:43;;;;;;;43.55;5.03;;;;;;;;;;5023987;28;20052;-75
2023/05/07 06:19:11;;;;;;;35.05;4.70;;;;;;;;;;5039890;28;20037;-75
2023/05/07 06:21:40;;;;;;;32.30;4.13;;;;;;;;;;5040934;28;20136;-75
2023/05/07 06:24:07;;;;;;;46.63;5.53;;;;;;;;;;5043284;28;20045;-75
2023/05/07 06:26:37;;;;;;;50.47;5.38;;;;;;;;;;5024428;28;20502;-75
2023/05/07 06:29:06;;;;;;;27.38;4.00;;;;;;;;;;5034443;28;20055;-75
2023/05/07 06:31:36;;;;;;;46.85;5.65;;;;;;;;;;5041945;28;20080;-74
2023/05/07 06:34:07;;;;;;;21.25;3.95;;;;;;;;;;5042946;28;20045;-75
2023/05/07 06:36:37;;;;;;;40.10;4.80;;;;;;;;;;5040317;28;20042;-74
2023/05/07 06:39:30;;;;;;;30.40;4.60;;;;;;;;;;5025103;28;20387;-75
2023/05/07 06:41:58;;;;;;;49.42;6.82;;;;;;;;;;5015384;28;20052;-74
2023/05/07 06:44:30;;;;;;;52.38;5.85;;;;;;;;;;5032608;28;20057;-74
2023/05/07 06:47:09;;;;;;;34.20;4.85;;;;;;;;;;5042205;28;20387;-74
2023/05/07 06:49:39;;;;;;;34.65;4.28;;;;;;;;;;5032310;28;20441;-75
2023/05/07 06:52:09;;;;;;;18.92;3.38;;;;;;;;;;5022406;28;20491;-74
2023/05/07 06:54:44;;;;;;;35.17;4.50;;;;;;;;;;5042202;28;20128;-75
2023/05/07 06:57:14;;;;;;;18.08;4.03;;;;;;;;;;5028772;28;20087;-75
2023/05/07 06:59:41;;;;;;;30.63;4.72;;;;;;;;;;5033076;28;20090;-75
2023/05/07 07:02:10;;;;;;;40.03;4.70;;;;;;;;;;5041083;28;20061;-74
2023/05/07 07:04:41;;;;;;;27.80;4.38;;;;;;;;;;5046194;28;20045;-75
2023/05/07 07:07:10;;;;;;;27.63;4.13;;;;;;;;;;5034008;28;20503;-74
2023/05/07 07:09:41;;;;;;;23.58;3.63;;;;;;;;;;5024599;28;20045;-74
2023/05/07 07:12:12;;;;;;;22.88;3.33;;;;;;;;;;5006672;28;20103;-74
2023/05/07 07:14:44;;;;;;;76.60;7.53;;;;;;;;;;5032013;28;20057;-74
2023/05/07 07:17:14;;;;;;;24.40;3.50;;;;;;;;;;5016245;28;20809;-74
2023/05/07 07:19:42;;;;;;;27.63;3.55;;;;;;;;;;5043169;28;20397;-74
2023/05/07 07:22:10;;;;;;;33.65;4.07;;;;;;;;;;5029288;28;20049;-75
2023/05/07 07:24:37;;;;;;;34.50;4.35;;;;;;;;;;5044300;28;20073;-74
2023/05/07 07:27:07;;;;;;;28.05;4.28;;;;;;;;;;5022438;28;20049;-74
2023/05/07 07:29:34;;;;;;;58.80;6.13;;;;;;;;;;5032251;28;20380;-75
2023/05/07 07:32:03;;;;;;;33.05;4.35;;;;;;;;;;5031089;28;20072;-74
2023/05/07 07:34:33;;;;;;;61.40;6.30;;;;;;;;;;5031646;28;20116;-75
2023/05/07 07:37:05;;;;;;;37.03;4.53;;;;;;;;;;5037942;28;20111;-75
2023/05/07 07:39:33;;;;;;;26.55;3.67;;;;;;;;;;5024698;28;20052;-74
2023/05/07 07:42:03;;;;;;;58.83;6.13;;;;;;;;;;5040299;28;20037;-75
2023/05/07 07:44:32;;;;;;;28.80;3.65;;;;;;;;;;5024748;28;20057;-74
2023/05/07 07:47:05;;;;;;;23.48;3.35;;;;;;;;;;5029674;28;20136;-74
2023/05/07 07:49:33;;;;;;;29.60;3.63;;;;;;;;;;5040635;28;20045;-74
2023/05/07 07:52:04;;;;;;;36.80;4.35;;;;;;;;;;5035429;28;20491;-75
2023/05/07 07:54:34;;;;;;;38.30;4.55;;;;;;;;;;5044293;28;20037;-74
2023/05/07 07:57:01;;;;;;;51.00;5.10;;;;;;;;;;5027949;28;20091;-74
2023/05/07 07:59:34;;;;;;;63.15;6.07;;;;;;;;;;5026322;28;20464;-75
2023/05/07 08:02:01;;;;;;;59.70;6.05;;;;;;;;;;5049372;28;20074;-74
2023/05/07 08:04:30;;;;;;;5.65;1.90;;;;;;;;;;5045271;28;20520;-75
2023/05/07 08:07:00;;;;;;;42.40;4.68;;;;;;;;;;5024867;28;20517;-74
2023/05/07 08:09:29;;;;;;;35.63;4.28;;;;;;;;;;5033891;28;20060;-74
2023/05/07 08:11:58;;;;;;;54.50;5.53;;;;;;;;;;5015912;28;20047;-74
2023/05/07 08:14:26;;;;;;;70.38;6.70;;;;;;;;;;5043685;28;20041;-74
2023/05/07 08:16:53;;;;;;;42.75;4.68;;;;;;;;;;5025074;28;20050;-74
2023/05/07 08:19:21;;;;;;;29.35;4.32;;;;;;;;;;5033051;28;20406;-74
2023/05/07 08:21:55;;;;;;;36.55;4.10;;;;;;;;;;5045889;28;20060;-74
2023/05/07 08:24:31;;;;;;;30.73;3.28;;;;;;;;;;5044914;28;20056;-75
2023/05/07 08:26:59;;;;;;;36.67;3.75;;;;;;;;;;5009456;28;20050;-74
2023/05/07 08:29:26;;;;;;;65.97;6.20;;;;;;;;;;5033577;28;20049;-74
2023/05/07 08:31:53;;;;;;;29.73;4.03;;;;;;;;;;5032942;28;20491;-75
2023/05/07 08:34:28;;;;;;;23.38;3.08;;;;;;;;;;5032294;28;20037;-74
2023/05/07 08:36:58;;;;;;;61.38;5.75;;;;;;;;;;5033798;28;20044;-74
2023/05/07 08:39:26;;;;;;;35.97;4.18;;;;;;;;;;5034551;28;20067;-74
2023/05/07 08:41:56;;;;;;;64.30;5.78;;;;;;;;;;5034181;28;20029;-75
2023/05/07 08:44:26;;;;;;;35.38;3.83;;;;;;;;;;5043685;28;20052;-75
2023/05/07 08:46:55;;;;;;;27.50;3.25;;;;;;;;;;5031954;28;20046;-75
2023/05/07 08:49:23;;;;;;;46.95;4.70;;;;;;;;;;5025267;28;20045;-75
2023/05/07 08:51:51;;;;;;;37.92;4.00;;;;;;;;;;5015570;28;20046;-74
2023/05/07 08:54:23;;;;;;;19.60;2.70;;;;;;;;;;5031986;28;20050;-75
2023/05/07 08:56:53;;;;;;;48.92;4.80;;;;;;;;;;5026713;28;20148;-75
2023/05/07 08:59:20;;;;;;;41.58;4.25;;;;;;;;;;5033216;28;20406;-75
2023/05/07 09:01:48;;;;;;;49.22;4.85;;;;;;;;;;5046420;28;20065;-74
2023/05/07 09:04:16;;;;;;;17.02;2.03;;;;;;;;;;5042647;28;20041;-75
2023/05/07 09:06:43;;;;;;;34.03;3.55;;;;;;;;;;5026250;28;20053;-75
2023/05/07 09:09:18;;;;;;;32.90;3.65;;;;;;;;;;5029208;28;20049;-75
2023/05/07 09:11:46;;;;;;;22.52;3.08;;;;;;;;;;5044430;28;20155;-75
2023/05/07 09:14:21;;;;;;;46.80;4.25;;;;;;;;;;5028974;28;20045;-75
2023/05/07 09:16:51;;;;;;;48.45;4.80;;;;;;;;;;5046600;28;20048;-75
2023/05/07 09:19:23;;;;;;;31.80;3.53;;;;;;;;;;5032088;28;20045;-76
2023/05/07 09:22:01;;;;;;;34.67;3.90;;;;;;;;;;5042903;28;20048;-75
2023/05/07 09:24:37;;;;;;;30.70;4.57;;;;;;;;;;5009272;28;20080;-75
2023/05/07 09:27:09;;;;;;;52.10;6.40;;;;;;;;;;5042701;28;20398;-75
2023/05/07 09:29:37;;;;;;;40.92;4.80;;;;;;;;;;5035256;28;20053;-74
2023/05/07 09:32:08;;;;;;;33.88;4.07;;;;;;;;;;5024151;28;20034;-75
2023/05/07 09:34:40;;;;;;;20.52;3.17;;;;;;;;;;5030261;28;20091;-76
2023/05/07 09:37:07;;;;;;;36.40;4.13;;;;;;;;;;5014540;28;20510;-75
2023/05/07 09:39:41;;;;;;;34.88;3.50;;;;;;;;;;5032788;28;20049;-75
2023/05/07 09:42:11;;;;;;;47.47;4.90;;;;;;;;;;5013356;28;20293;-75
2023/05/07 09:44:39;;;;;;;42.60;4.97;;;;;;;;;;5034059;28;20067;-75
2023/05/07 09:47:11;;;;;;;40.47;4.28;;;;;;;;;;5025445;28;20052;-76
2023/05/07 09:49:47;;;;;;;26.77;3.25;;;;;;;;;;5015692;28;20421;-75
2023/05/07 09:52:19;;;;;;;34.17;3.97;;;;;;;;;;5015580;28;20075;-75
2023/05/07 09:54:50;;;;;;;33.85;3.38;;;;;;;;;;5028083;28;20091;-75
2023/05/07 09:57:20;;;;;;;58.90;5.70;;;;;;;;;;5040978;28;20076;-77
2023/05/07 09:59:55;;;;;;;37.05;3.85;;;;;;;;;;5031812;28;20417;-75
2023/05/07 10:02:25;;;;;;;22.88;2.78;;;;;;;;;;5044024;28;20103;-76
2023/05/07 10:04:54;;;;;;;45.85;4.97;;;;;;;;;;5025522;28;20096;-75
2023/05/07 10:07:26;;;;;;;37.40;4.43;;;;;;;;;;5032072;28;20045;-76
2023/05/07 10:09:59;;;;;;;30.27;3.72;;;;;;;;;;5026178;28;20045;-75
2023/05/07 10:12:38;;;;;;;24.55;3.20;;;;;;;;;;5026901;28;20067;-75
2023/05/07 10:15:11;;;;;;;17.83;2.63;;;;;;;;;;5012286;28;20032;-75
2023/05/07 10:17:41;;;;;;;79.13;6.88;;;;;;;;;;5008875;28;20107;-75
2023/05/07 10:20:11;;;;;;;23.15;2.85;;;;;;;;;;5046219;28;20057;-75
2023/05/07 10:22:45;;;;;;;32.50;3.83;;;;;;;;;;5022915;28;20486;-75
2023/05/07 10:25:29;;;;;;;26.67;4.32;;;;;;;;;;5024739;28;20124;-75
2023/05/07 10:28:06;;;;;;;32.83;4.00;;;;;;;;;;5025225;28;20137;-75
2023/05/07 10:30:53;;;;;;;20.05;2.75;;;;;;;;;;5029098;28;20094;-76
2023/05/07 10:33:25;;;;;;;43.38;4.47;;;;;;;;;;5039900;28;20081;-75
2023/05/07 10:35:55;;;;;;;39.45;3.97;;;;;;;;;;5023271;28;20048;-75
2023/05/07 10:38:25;;;;;;;31.23;3.53;;;;;;;;;;5032821;28;20041;-75
2023/05/07 10:40:53;;;;;;;39.42;4.75;;;;;;;;;;5040100;28;20041;-75
2023/05/07 10:43:20;;;;;;;25.20;3.88;;;;;;;;;;5041395;28;20116;-75
2023/05/07 10:46:11;;;;;;;35.67;3.60;;;;;;;;;;5026090;28;20046;-75
2023/05/07 10:49:00;;;;;;;22.10;2.65;;;;;;;;;;5024107;28;20053;-75
2023/05/07 10:51:35;;;;;;;32.87;3.97;;;;;;;;;;5041125;28;20111;-75
2023/05/07 10:54:18;;;;;;;44.20;4.20;;;;;;;;;;5031030;28;20082;-75
2023/05/07 10:56:58;;;;;;;39.28;3.85;;;;;;;;;;5038831;28;20139;-75
2023/05/07 10:59:31;;;;;;;43.15;4.57;;;;;;;;;;5033404;28;20055;-75
2023/05/07 11:02:13;;;;;;;11.88;2.15;;;;;;;;;;5025736;28;20053;-75
2023/05/07 11:05:15;;;;;;;32.15;3.72;;;;;;;;;;5037957;28;20049;-74
2023/05/07 11:07:53;;;;;;;25.92;3.03;;;;;;;;;;5025919;28;20049;-75
2023/05/07 11:10:20;;;;;;;25.63;3.58;;;;;;;;;;5040891;28;20045;-75
2023/05/07 11:12:58;;;;;;;35.33;3.80;;;;;;;;;;5025939;28;20561;-75
2023/05/07 11:15:36;;;;;;;25.85;2.90;;;;;;;;;;5032458;28;20053;-75
2023/05/07 11:18:12;;;;;;;23.13;2.95;;;;;;;;;;5010766;28;20049;-76
2023/05/07 11:20:49;;;;;;;60.00;5.88;;;;;;;;;;5043778;28;20130;-75
2023/05/07 11:23:51;;;;;;;33.88;3.85;;;;;;;;;;5036435;28;20562;-75
2023/05/07 11:26:40;;;;;;;53.10;5.32;;;;;;;;;;5036440;28;20057;-75
2023/05/07 11:29:14;;;;;;;48.75;5.70;;;;;;;;;;5032720;28;20046;-75
2023/05/07 11:31:49;;;;;;;31.23;3.78;;;;;;;;;;5018283;28;20137;-76
2023/05/07 11:34:23;;;;;;;32.67;4.03;;;;;;;;;;5037365;28;20045;-76
2023/05/07 11:36:52;;;;;;;34.50;3.97;;;;;;;;;;5038257;28;20536;-76
2023/05/07 11:39:31;;;;;;;21.95;3.30;;;;;;;;;;5048547;28;20049;-77
2023/05/07 11:42:01;;;;;;;65.38;5.90;;;;;;;;;;5036760;28;20055;-75
2023/05/07 11:44:41;;;;;;;44.05;4.72;;;;;;;;;;5038089;28;20049;-75
2023/05/07 11:47:12;;;;;;;46.90;4.57;;;;;;;;;;5035833;28;20120;-75
2023/05/07 11:49:40;;;;;;;31.50;3.63;;;;;;;;;;5022771;28;20068;-76
2023/05/07 11:52:07;;;;;;;41.55;5.05;;;;;;;;;;5046591;28;20041;-74
2023/05/07 11:54:37;;;;;;;45.97;4.97;;;;;;;;;;5051351;28;20045;-75
2023/05/07 11:57:07;;;;;;;48.38;6.25;;;;;;;;;;5032799;28;20041;-75
2023/05/07 11:59:40;;;;;;;66.57;9.00;;;;;;;;;;5029908;28;20046;-75
2023/05/07 12:02:11;;;;;;;46.05;6.15;;;;;;;;;;5034135;28;20056;-74
2023/05/07 12:04:38;;;;;;;15.75;3.35;;;;;;;;;;5028408;28;20573;-75
2023/05/07 12:07:14;;;;;;;35.05;4.03;;;;;;;;;;5029762;28;20057;-74
2023/05/07 12:09:44;;;;;;;22.73;4.13;;;;;;;;;;5034595;28;20525;-75
2023/05/07 12:12:17;;;;;;;29.58;3.30;;;;;;;;;;5029441;28;20110;-74
2023/05/07 12:14:45;;;;;;;51.90;5.00;;;;;;;;;;5030280;28;20099;-74
2023/05/07 12:17:14;;;;;;;18.52;2.60;;;;;;;;;;5035604;28;20053;-75
2023/05/07 12:19:43;;;;;;;18.05;2.53;;;;;;;;;;5047016;28;20041;-75
2023/05/07 12:22:10;;;;;;;35.83;4.03;;;;;;;;;;5054514;28;20052;-74
2023/05/07 12:24:49;;;;;;;22.10;2.92;;;;;;;;;;5051744;28;20041;-75
2023/05/07 12:27:17;;;;;;;29.88;3.70;;;;;;;;;;5030518;28;20045;-74
2023/05/07 12:29:51;;;;;;;18.50;2.33;;;;;;;;;;5030765;28;20049;-75
2023/05/07 12:32:19;;;;;;;49.05;4.45;;;;;;;;;;5036498;28;20045;-75
2023/05/07 12:34:49;;;;;;;29.42;3.55;;;;;;;;;;5047228;28;20490;-75
2023/05/07 12:37:22;;;;;;;23.05;2.92;;;;;;;;;;5045898;28;20048;-75
2023/05/07 12:40:06;;;;;;;44.90;4.40;;;;;;;;;;5048997;28;20040;-75
2023/05/07 12:42:36;;;;;;;48.00;4.57;;;;;;;;;;5047649;28;20483;-75
2023/05/07 12:45:17;;;;;;;40.55;4.28;;;;;;;;;;5047382;28;20075;-75
2023/05/07 12:47:47;;;;;;;35.25;4.22;;;;;;;;;;5047743;28;20049;-75
2023/05/07 12:50:18;;;;;;;46.45;4.72;;;;;;;;;;5045673;28;20053;-75
2023/05/07 12:52:50;;;;;;;23.30;3.60;;;;;;;;;;5033151;28;20564;-75
2023/05/07 12:55:20;;;;;;;30.20;3.53;;;;;;;;;;5035754;28;20125;-75
2023/05/07 12:57:57;;;;;;;54.15;4.95;;;;;;;;;;5035116;28;20116;-75
2023/05/07 13:00:34;;;;;;;26.30;2.83;;;;;;;;;;5029882;28;20075;-74
2023/05/07 13:03:03;;;;;;;63.60;5.28;;;;;;;;;;5029040;28;20048;-74
2023/05/07 13:05:33;;;;;;;54.53;5.20;;;;;;;;;;5046581;28;20048;-74
2023/05/07 13:08:05;;;;;;;57.40;5.00;;;;;;;;;;5033486;28;20050;-75
2023/05/07 13:10:33;;;;;;;20.80;3.00;;;;;;;;;;5047008;28;20970;-75
2023/05/07 13:13:00;;;;;;;28.38;3.35;;;;;;;;;;5045335;28;20043;-74
2023/05/07 13:15:30;;;;;;;43.20;4.43;;;;;;;;;;5027360;28;20033;-74
2023/05/07 13:17:57;;;;;;;26.73;3.13;;;;;;;;;;5044508;28;20033;-75
2023/05/07 13:20:24;;;;;;;27.42;3.58;;;;;;;;;;5036032;28;20045;-75
2023/05/07 13:22:51;;;;;;;57.13;5.15;;;;;;;;;;5033644;28;20049;-74
2023/05/07 13:25:22;;;;;;;19.65;2.42;;;;;;;;;;5046795;28;20049;-73
2023/05/07 13:27:49;;;;;;;25.20;2.78;;;;;;;;;;5029441;28;20041;-74
2023/05/07 13:30:35;;;;;;;21.77;3.00;;;;;;;;;;5033842;28;20072;-74
2023/05/07 13:33:02;;;;;;;47.03;4.57;;;;;;;;;;5038021;28;20099;-74
2023/05/07 13:35:33;;;;;;;60.67;6.18;;;;;;;;;;5045248;28;20043;-73
2023/05/07 13:38:00;;;;;;;25.80;3.85;;;;;;;;;;5044873;28;20088;-74
2023/05/07 13:40:27;;;;;;;18.73;2.35;;;;;;;;;;5035524;28;20041;-74
2023/05/07 13:43:01;;;;;;;33.28;3.58;;;;;;;;;;5036185;28;20470;-74
2023/05/07 13:45:31;;;;;;;29.42;3.22;;;;;;;;;;5033177;28;20048;-73
2023/05/07 13:48:01;;;;;;;;;;;;;;;;;;5044310;28;20053;-75
2023/05/07 13:50:31;;;;;;;46.97;4.93;;;;;;;;;;5045501;28;19921;-77
2023/05/07 13:52:58;;;;;;;28.17;3.40;;;;;;;;;;5033433;28;20045;-76
2023/05/07 13:55:25;;;;;;;29.98;3.33;;;;;;;;;;5028981;28;20036;-77
2023/05/07 13:57:58;;;;;;;30.63;3.10;;;;;;;;;;5046573;28;20041;-77
2023/05/07 14:00:26;;;;;;;;;;;;;;;;;;5048363;28;20041;-77
2023/05/07 14:02:53;;;;;;;42.17;3.97;;;;;;;;;;5048167;28;19975;-77
2023/05/07 14:05:20;;;;;;;32.97;3.67;;;;;;;;;;5032076;28;20094;-77
2023/05/07 14:07:51;;;;;;;16.10;2.47;;;;;;;;;;5018995;28;20048;-76
2023/05/07 14:10:19;;;;;;;52.60;5.18;;;;;;;;;;5034601;28;20033;-77
2023/05/07 14:12:46;;;;;;;32.33;3.33;;;;;;;;;;5025420;28;20072;-77
2023/05/07 14:15:14;;;;;;;34.50;3.80;;;;;;;;;;5016923;28;20053;-77
2023/05/07 14:17:42;;;;;;;54.17;5.30;;;;;;;;;;5018889;28;20053;-77
2023/05/07 14:20:10;;;;;;;24.48;2.97;;;;;;;;;;5028752;28;20052;-77
2023/05/07 14:22:37;;;;;;;35.40;4.45;;;;;;;;;;5035728;28;20047;-77
2023/05/07 14:25:07;;;;;;;34.38;3.47;;;;;;;;;;5025135;28;20103;-77
2023/05/07 14:27:34;;;;;;;35.60;3.83;;;;;;;;;;5012867;28;20053;-77
2023/05/07 14:30:01;;;;;;;34.30;4.00;;;;;;;;;;5020976;28;20037;-77
2023/05/07 14:32:32;;;;;;;44.03;4.75;;;;;;;;;;5042786;28;20075;-77
2023/05/07 14:34:59;;;;;;;41.15;4.45;;;;;;;;;;5045517;28;20076;-76
2023/05/07 14:37:26;;;;;;;52.15;4.55;;;;;;;;;;5032262;28;20124;-76
2023/05/07 14:39:54;;;;;;;40.15;4.18;;;;;;;;;;5027993;28;20072;-76
2023/05/07 14:42:23;;;;;;;23.60;3.15;;;;;;;;;;5025431;28;20124;-76
2023/05/07 14:44:53;;;;;;;51.97;5.05;;;;;;;;;;5028531;28;20037;-76
2023/05/07 14:47:20;;;;;;;32.83;3.70;;;;;;;;;;5033758;28;20040;-76